sensor_id;sensor_type;location;lat;lon;timestamp;temperature;humidity
20204;DHT22;10261;49.010;12.034;2022-07-15T00:00:09;19.10;99.90
20204;DHT22;10261;49.010;12.034;2022-07-15T00:02:15;19.10;99.90
20204;DHT22;10261;49.010;12.034;2022-07-15T00:03:18;19.10;99.90
20204;DHT22;10261;49.010;12.034;2022-07-15T00:04:20;19.10;99.90
20204;DHT22;10261;49.010;12.034;2022-07-15T00:05:25;19.10;99.90
20204;DHT22;10261;49.010;12.034;2022-07-15T00:06:27;19.10;99.90
20204;DHT22;10261;49.010;12.034;2022-07-15T00:07:30;19.10;99.90
20204;DHT22;10261;49.010;12.034;2022-07-15T00:09:36;19.10;99.90
20204;DHT22;10261;49.010;12.034;2022-07-15T00:10:56;19.00;99.90
20204;DHT22;10261;49.010;12.034;2022-07-15T00:12:03;19.00;99.90
20204;DHT22;10261;49.010;12.034;2022-07-15T00:13:06;19.00;99.90
20204;DHT22;10261;49.010;12.034;2022-07-15T00:15:12;19.00;99.90
20204;DHT22;10261;49.010;12.034;2022-07-15T00:16:15;19.00;99.90
20204;DHT22;10261;49.010;12.034;2022-07-15T00:17:18;19.00;99.90
20204;DHT22;10261;49.010;12.034;2022-07-15T00:18:21;19.00;99.90
20204;DHT22;10261;49.010;12.034;2022-07-15T00:19:23;19.00;99.90
20204;DHT22;10261;49.010;12.034;2022-07-15T00:20:26;19.00;99.90
20204;DHT22;10261;49.010;12.034;2022-07-15T00:21:28;19.00;99.90
20204;DHT22;10261;49.010;12.034;2022-07-15T00:22:31;19.00;99.90
20204;DHT22;10261;49.010;12.034;2022-07-15T00:23:34;19.00;99.90
20204;DHT22;10261;49.010;12.034;2022-07-15T00:24:37;18.90;99.90
20204;DHT22;10261;49.010;12.034;2022-07-15T00:25:39;18.90;99.90
20204;DHT22;10261;49.010;12.034;2022-07-15T00:27:55;18.90;99.90
20204;DHT22;10261;49.010;12.034;2022-07-15T00:29:00;18.90;99.90
20204;DHT22;10261;49.010;12.034;2022-07-15T00:30:02;18.90;99.90
20204;DHT22;10261;49.010;12.034;2022-07-15T00:31:05;18.90;99.90
20204;DHT22;10261;49.010;12.034;2022-07-15T00:32:07;18.90;99.90
20204;DHT22;10261;49.010;12.034;2022-07-15T00:33:11;18.90;99.90
20204;DHT22;10261;49.010;12.034;2022-07-15T00:35:16;18.80;99.90
20204;DHT22;10261;49.010;12.034;2022-07-15T00:36:18;18.80;99.90
20204;DHT22;10261;49.010;12.034;2022-07-15T00:37:22;18.80;99.90
20204;DHT22;10261;49.010;12.034;2022-07-15T00:38:24;18.80;99.90
20204;DHT22;10261;49.010;12.034;2022-07-15T00:39:27;18.80;99.90
20204;DHT22;10261;49.010;12.034;2022-07-15T00:40:29;18.80;99.90
20204;DHT22;10261;49.010;12.034;2022-07-15T00:41:36;18.80;99.90
20204;DHT22;10261;49.010;12.034;2022-07-15T00:42:38;18.70;99.90
20204;DHT22;10261;49.010;12.034;2022-07-15T00:43:47;18.80;99.90
20204;DHT22;10261;49.010;12.034;2022-07-15T00:44:50;18.70;99.90
20204;DHT22;10261;49.010;12.034;2022-07-15T00:46:57;18.70;99.90
20204;DHT22;10261;49.010;12.034;2022-07-15T00:48:02;18.60;99.90
20204;DHT22;10261;49.010;12.034;2022-07-15T00:49:10;18.60;99.90
20204;DHT22;10261;49.010;12.034;2022-07-15T00:50:13;18.60;99.90
20204;DHT22;10261;49.010;12.034;2022-07-15T00:52:19;18.60;99.90
20204;DHT22;10261;49.010;12.034;2022-07-15T00:53:26;18.50;99.90
20204;DHT22;10261;49.010;12.034;2022-07-15T00:55:40;18.60;99.90
20204;DHT22;10261;49.010;12.034;2022-07-15T00:56:46;18.60;99.90
20204;DHT22;10261;49.010;12.034;2022-07-15T00:57:54;18.60;99.90
20204;DHT22;10261;49.010;12.034;2022-07-15T00:58:57;18.60;99.90
20204;DHT22;10261;49.010;12.034;2022-07-15T01:00:05;18.60;99.90
20204;DHT22;10261;49.010;12.034;2022-07-15T01:01:08;18.60;99.90
20204;DHT22;10261;49.010;12.034;2022-07-15T01:02:13;18.50;99.90
20204;DHT22;10261;49.010;12.034;2022-07-15T01:03:16;18.50;99.90
20204;DHT22;10261;49.010;12.034;2022-07-15T01:04:21;18.50;99.90
20204;DHT22;10261;49.010;12.034;2022-07-15T01:05:24;18.50;99.90
20204;DHT22;10261;49.010;12.034;2022-07-15T01:06:27;18.60;99.90
20204;DHT22;10261;49.010;12.034;2022-07-15T01:07:30;18.50;99.90
20204;DHT22;10261;49.010;12.034;2022-07-15T01:08:33;18.50;99.90
20204;DHT22;10261;49.010;12.034;2022-07-15T01:09:35;18.50;99.90
20204;DHT22;10261;49.010;12.034;2022-07-15T01:10:39;18.50;99.90
20204;DHT22;10261;49.010;12.034;2022-07-15T01:11:42;18.50;99.90
20204;DHT22;10261;49.010;12.034;2022-07-15T01:12:46;18.50;99.90
20204;DHT22;10261;49.010;12.034;2022-07-15T01:13:50;18.50;99.90
20204;DHT22;10261;49.010;12.034;2022-07-15T01:14:52;18.50;99.90
20204;DHT22;10261;49.010;12.034;2022-07-15T01:15:56;18.50;99.90
20204;DHT22;10261;49.010;12.034;2022-07-15T01:17:00;18.50;99.90
20204;DHT22;10261;49.010;12.034;2022-07-15T01:18:02;18.50;99.90
20204;DHT22;10261;49.010;12.034;2022-07-15T01:19:06;18.50;99.90
20204;DHT22;10261;49.010;12.034;2022-07-15T01:20:09;18.50;99.90
20204;DHT22;10261;49.010;12.034;2022-07-15T01:21:13;18.50;99.90
20204;DHT22;10261;49.010;12.034;2022-07-15T01:22:16;18.50;99.90
20204;DHT22;10261;49.010;12.034;2022-07-15T01:23:18;18.40;99.90
20204;DHT22;10261;49.010;12.034;2022-07-15T01:25:24;18.40;99.90
20204;DHT22;10261;49.010;12.034;2022-07-15T01:26:29;18.40;99.90
20204;DHT22;10261;49.010;12.034;2022-07-15T01:27:31;18.40;99.90
20204;DHT22;10261;49.010;12.034;2022-07-15T01:28:35;18.40;99.90
20204;DHT22;10261;49.010;12.034;2022-07-15T01:29:37;18.40;99.90
20204;DHT22;10261;49.010;12.034;2022-07-15T01:30:40;18.30;99.90
20204;DHT22;10261;49.010;12.034;2022-07-15T01:31:42;18.40;99.90
20204;DHT22;10261;49.010;12.034;2022-07-15T01:32:45;18.30;99.90
20204;DHT22;10261;49.010;12.034;2022-07-15T01:33:47;18.30;99.90
20204;DHT22;10261;49.010;12.034;2022-07-15T01:35:54;18.30;99.90
20204;DHT22;10261;49.010;12.034;2022-07-15T01:36:58;18.30;99.90
20204;DHT22;10261;49.010;12.034;2022-07-15T01:38:00;18.30;99.90
20204;DHT22;10261;49.010;12.034;2022-07-15T01:39:04;18.30;99.90
20204;DHT22;10261;49.010;12.034;2022-07-15T01:40:26;18.20;99.90
20204;DHT22;10261;49.010;12.034;2022-07-15T01:42:31;18.30;99.90
20204;DHT22;10261;49.010;12.034;2022-07-15T01:43:34;18.20;99.90
20204;DHT22;10261;49.010;12.034;2022-07-15T01:44:36;18.20;99.90
20204;DHT22;10261;49.010;12.034;2022-07-15T01:45:42;18.30;99.90
20204;DHT22;10261;49.010;12.034;2022-07-15T01:46:44;18.20;99.90
20204;DHT22;10261;49.010;12.034;2022-07-15T01:47:48;18.20;99.90
20204;DHT22;10261;49.010;12.034;2022-07-15T01:48:50;18.20;99.90
20204;DHT22;10261;49.010;12.034;2022-07-15T01:50:11;18.20;99.90
20204;DHT22;10261;49.010;12.034;2022-07-15T01:51:14;18.20;99.90
20204;DHT22;10261;49.010;12.034;2022-07-15T01:52:18;18.20;99.90
20204;DHT22;10261;49.010;12.034;2022-07-15T01:53:21;18.20;99.90
20204;DHT22;10261;49.010;12.034;2022-07-15T01:54:25;18.20;99.90
20204;DHT22;10261;49.010;12.034;2022-07-15T01:55:28;18.20;99.90
20204;DHT22;10261;49.010;12.034;2022-07-15T01:56:30;18.20;99.90
20204;DHT22;10261;49.010;12.034;2022-07-15T01:57:33;18.20;99.90
20204;DHT22;10261;49.010;12.034;2022-07-15T01:58:35;18.20;99.90
20204;DHT22;10261;49.010;12.034;2022-07-15T01:59:38;18.20;99.90
20204;DHT22;10261;49.010;12.034;2022-07-15T02:01:44;18.20;99.90
20204;DHT22;10261;49.010;12.034;2022-07-15T02:02:47;18.20;99.90
20204;DHT22;10261;49.010;12.034;2022-07-15T02:03:49;18.20;99.90
20204;DHT22;10261;49.010;12.034;2022-07-15T02:05:55;18.10;99.90
20204;DHT22;10261;49.010;12.034;2022-07-15T02:06:57;18.10;99.90
20204;DHT22;10261;49.010;12.034;2022-07-15T02:08:02;18.10;99.90
20204;DHT22;10261;49.010;12.034;2022-07-15T02:09:05;18.10;99.90
20204;DHT22;10261;49.010;12.034;2022-07-15T02:10:07;18.10;99.90
20204;DHT22;10261;49.010;12.034;2022-07-15T02:12:13;18.20;99.90
20204;DHT22;10261;49.010;12.034;2022-07-15T02:13:16;18.10;99.90
20204;DHT22;10261;49.010;12.034;2022-07-15T02:14:18;18.10;99.90
20204;DHT22;10261;49.010;12.034;2022-07-15T02:15:21;18.10;99.90
20204;DHT22;10261;49.010;12.034;2022-07-15T02:16:24;18.10;99.90
20204;DHT22;10261;49.010;12.034;2022-07-15T02:17:27;18.00;99.90
20204;DHT22;10261;49.010;12.034;2022-07-15T02:18:29;18.00;99.90
20204;DHT22;10261;49.010;12.034;2022-07-15T02:19:32;18.00;99.90
20204;DHT22;10261;49.010;12.034;2022-07-15T02:21:37;18.10;99.90
20204;DHT22;10261;49.010;12.034;2022-07-15T02:23:44;18.10;99.90
20204;DHT22;10261;49.010;12.034;2022-07-15T02:24:46;18.10;99.90
20204;DHT22;10261;49.010;12.034;2022-07-15T02:26:52;18.10;99.90
20204;DHT22;10261;49.010;12.034;2022-07-15T02:27:55;18.00;99.90
20204;DHT22;10261;49.010;12.034;2022-07-15T02:30:01;18.00;99.90
20204;DHT22;10261;49.010;12.034;2022-07-15T02:31:04;18.00;99.90
20204;DHT22;10261;49.010;12.034;2022-07-15T02:32:07;18.00;99.90
20204;DHT22;10261;49.010;12.034;2022-07-15T02:33:10;18.00;99.90
20204;DHT22;10261;49.010;12.034;2022-07-15T02:34:15;18.00;99.90
20204;DHT22;10261;49.010;12.034;2022-07-15T02:35:18;17.90;99.90
20204;DHT22;10261;49.010;12.034;2022-07-15T02:36:21;18.00;99.90
20204;DHT22;10261;49.010;12.034;2022-07-15T02:37:23;17.90;99.90
20204;DHT22;10261;49.010;12.034;2022-07-15T02:38:26;17.90;99.90
20204;DHT22;10261;49.010;12.034;2022-07-15T02:39:29;18.00;99.90
20204;DHT22;10261;49.010;12.034;2022-07-15T02:40:33;17.90;99.90
20204;DHT22;10261;49.010;12.034;2022-07-15T02:42:47;17.90;99.90
20204;DHT22;10261;49.010;12.034;2022-07-15T02:43:49;18.00;99.90
20204;DHT22;10261;49.010;12.034;2022-07-15T02:44:52;17.90;99.90
20204;DHT22;10261;49.010;12.034;2022-07-15T02:45:54;17.90;99.90
20204;DHT22;10261;49.010;12.034;2022-07-15T02:46:58;17.90;99.90
20204;DHT22;10261;49.010;12.034;2022-07-15T02:48:00;17.90;99.90
20204;DHT22;10261;49.010;12.034;2022-07-15T02:49:03;17.90;99.90
20204;DHT22;10261;49.010;12.034;2022-07-15T02:50:05;17.90;99.90
20204;DHT22;10261;49.010;12.034;2022-07-15T02:51:08;17.80;99.90
20204;DHT22;10261;49.010;12.034;2022-07-15T02:52:11;17.80;99.90
20204;DHT22;10261;49.010;12.034;2022-07-15T02:53:14;17.80;99.90
20204;DHT22;10261;49.010;12.034;2022-07-15T02:54:16;17.90;99.90
20204;DHT22;10261;49.010;12.034;2022-07-15T02:55:21;17.80;99.90
20204;DHT22;10261;49.010;12.034;2022-07-15T02:56:23;17.80;99.90
20204;DHT22;10261;49.010;12.034;2022-07-15T02:58:30;17.80;99.90
20204;DHT22;10261;49.010;12.034;2022-07-15T02:59:33;17.70;99.90
20204;DHT22;10261;49.010;12.034;2022-07-15T03:00:35;17.80;99.90
20204;DHT22;10261;49.010;12.034;2022-07-15T03:01:38;17.80;99.90
20204;DHT22;10261;49.010;12.034;2022-07-15T03:02:41;17.70;99.90
20204;DHT22;10261;49.010;12.034;2022-07-15T03:03:44;17.70;99.90
20204;DHT22;10261;49.010;12.034;2022-07-15T03:05:49;17.80;99.90
20204;DHT22;10261;49.010;12.034;2022-07-15T03:06:51;17.70;99.90
20204;DHT22;10261;49.010;12.034;2022-07-15T03:10:00;17.70;99.90
20204;DHT22;10261;49.010;12.034;2022-07-15T03:11:04;17.70;99.90
20204;DHT22;10261;49.010;12.034;2022-07-15T03:12:07;17.70;99.90
20204;DHT22;10261;49.010;12.034;2022-07-15T03:13:09;17.70;99.90
20204;DHT22;10261;49.010;12.034;2022-07-15T03:14:12;17.60;99.90
20204;DHT22;10261;49.010;12.034;2022-07-15T03:15:21;17.60;99.90
20204;DHT22;10261;49.010;12.034;2022-07-15T03:16:24;17.60;99.90
20204;DHT22;10261;49.010;12.034;2022-07-15T03:17:27;17.60;99.90
20204;DHT22;10261;49.010;12.034;2022-07-15T03:18:29;17.60;99.90
20204;DHT22;10261;49.010;12.034;2022-07-15T03:19:32;17.60;99.90
20204;DHT22;10261;49.010;12.034;2022-07-15T03:20:34;17.70;99.90
20204;DHT22;10261;49.010;12.034;2022-07-15T03:21:37;17.60;99.90
20204;DHT22;10261;49.010;12.034;2022-07-15T03:22:39;17.70;99.90
20204;DHT22;10261;49.010;12.034;2022-07-15T03:23:42;17.60;99.90
20204;DHT22;10261;49.010;12.034;2022-07-15T03:24:44;17.60;99.90
20204;DHT22;10261;49.010;12.034;2022-07-15T03:25:47;17.60;99.90
20204;DHT22;10261;49.010;12.034;2022-07-15T03:26:53;17.60;99.90
20204;DHT22;10261;49.010;12.034;2022-07-15T03:27:55;17.60;99.90
20204;DHT22;10261;49.010;12.034;2022-07-15T03:28:58;17.60;99.90
20204;DHT22;10261;49.010;12.034;2022-07-15T03:30:01;17.60;99.90
20204;DHT22;10261;49.010;12.034;2022-07-15T03:31:04;17.60;99.90
20204;DHT22;10261;49.010;12.034;2022-07-15T03:32:07;17.60;99.90
20204;DHT22;10261;49.010;12.034;2022-07-15T03:33:10;17.60;99.90
20204;DHT22;10261;49.010;12.034;2022-07-15T03:34:13;17.60;99.90
20204;DHT22;10261;49.010;12.034;2022-07-15T03:35:16;17.60;99.90
20204;DHT22;10261;49.010;12.034;2022-07-15T03:36:19;17.50;99.90
20204;DHT22;10261;49.010;12.034;2022-07-15T03:37:22;17.50;99.90
20204;DHT22;10261;49.010;12.034;2022-07-15T03:38:24;17.50;99.90
20204;DHT22;10261;49.010;12.034;2022-07-15T03:39:27;17.50;99.90
20204;DHT22;10261;49.010;12.034;2022-07-15T03:40:29;17.50;99.90
20204;DHT22;10261;49.010;12.034;2022-07-15T03:41:32;17.50;99.90
20204;DHT22;10261;49.010;12.034;2022-07-15T03:42:36;17.50;99.90
20204;DHT22;10261;49.010;12.034;2022-07-15T03:43:39;17.50;99.90
20204;DHT22;10261;49.010;12.034;2022-07-15T03:44:41;17.50;99.90
20204;DHT22;10261;49.010;12.034;2022-07-15T03:45:44;17.50;99.90
20204;DHT22;10261;49.010;12.034;2022-07-15T03:46:47;17.50;99.90
20204;DHT22;10261;49.010;12.034;2022-07-15T03:47:49;17.40;99.90
20204;DHT22;10261;49.010;12.034;2022-07-15T03:48:52;17.40;99.90
20204;DHT22;10261;49.010;12.034;2022-07-15T03:49:55;17.50;99.90
20204;DHT22;10261;49.010;12.034;2022-07-15T03:50:58;17.50;99.90
20204;DHT22;10261;49.010;12.034;2022-07-15T03:52:00;17.50;99.90
20204;DHT22;10261;49.010;12.034;2022-07-15T03:53:03;17.50;99.90
20204;DHT22;10261;49.010;12.034;2022-07-15T03:54:05;17.50;99.90
20204;DHT22;10261;49.010;12.034;2022-07-15T03:55:09;17.60;99.90
20204;DHT22;10261;49.010;12.034;2022-07-15T03:56:11;17.60;99.90
20204;DHT22;10261;49.010;12.034;2022-07-15T03:57:14;17.50;99.90
20204;DHT22;10261;49.010;12.034;2022-07-15T03:58:18;17.50;99.90
20204;DHT22;10261;49.010;12.034;2022-07-15T03:59:21;17.50;99.90
20204;DHT22;10261;49.010;12.034;2022-07-15T04:00:23;17.60;99.90
20204;DHT22;10261;49.010;12.034;2022-07-15T04:01:27;17.50;99.90
20204;DHT22;10261;49.010;12.034;2022-07-15T04:02:29;17.50;99.90
20204;DHT22;10261;49.010;12.034;2022-07-15T04:03:32;17.50;99.90
20204;DHT22;10261;49.010;12.034;2022-07-15T04:04:35;17.50;99.90
20204;DHT22;10261;49.010;12.034;2022-07-15T04:05:38;17.50;99.90
20204;DHT22;10261;49.010;12.034;2022-07-15T04:06:40;17.50;99.90
20204;DHT22;10261;49.010;12.034;2022-07-15T04:07:43;17.50;99.90
20204;DHT22;10261;49.010;12.034;2022-07-15T04:08:45;17.50;99.90
20204;DHT22;10261;49.010;12.034;2022-07-15T04:09:49;17.50;99.90
20204;DHT22;10261;49.010;12.034;2022-07-15T04:10:51;17.60;99.90
20204;DHT22;10261;49.010;12.034;2022-07-15T04:11:54;17.50;99.90
20204;DHT22;10261;49.010;12.034;2022-07-15T04:12:57;17.50;99.90
20204;DHT22;10261;49.010;12.034;2022-07-15T04:14:00;17.60;99.90
20204;DHT22;10261;49.010;12.034;2022-07-15T04:15:04;17.50;99.90
20204;DHT22;10261;49.010;12.034;2022-07-15T04:16:08;17.50;99.90
20204;DHT22;10261;49.010;12.034;2022-07-15T04:17:13;17.50;99.90
20204;DHT22;10261;49.010;12.034;2022-07-15T04:18:15;17.60;99.90
20204;DHT22;10261;49.010;12.034;2022-07-15T04:19:18;17.60;99.90
20204;DHT22;10261;49.010;12.034;2022-07-15T04:20:21;17.60;99.90
20204;DHT22;10261;49.010;12.034;2022-07-15T04:21:24;17.50;99.90
20204;DHT22;10261;49.010;12.034;2022-07-15T04:22:26;17.60;99.90
20204;DHT22;10261;49.010;12.034;2022-07-15T04:23:29;17.60;99.90
20204;DHT22;10261;49.010;12.034;2022-07-15T04:24:31;17.50;99.90
20204;DHT22;10261;49.010;12.034;2022-07-15T04:25:35;17.50;99.90
20204;DHT22;10261;49.010;12.034;2022-07-15T04:26:37;17.50;99.90
20204;DHT22;10261;49.010;12.034;2022-07-15T04:27:40;17.50;99.90
20204;DHT22;10261;49.010;12.034;2022-07-15T04:28:42;17.60;99.90
20204;DHT22;10261;49.010;12.034;2022-07-15T04:29:46;17.50;99.90
20204;DHT22;10261;49.010;12.034;2022-07-15T04:30:50;17.50;99.90
20204;DHT22;10261;49.010;12.034;2022-07-15T04:31:52;17.50;99.90
20204;DHT22;10261;49.010;12.034;2022-07-15T04:35:01;17.60;99.90
20204;DHT22;10261;49.010;12.034;2022-07-15T04:36:04;17.50;99.90
20204;DHT22;10261;49.010;12.034;2022-07-15T04:37:07;17.50;99.90
20204;DHT22;10261;49.010;12.034;2022-07-15T04:38:09;17.60;99.90
20204;DHT22;10261;49.010;12.034;2022-07-15T04:39:12;17.60;99.90
20204;DHT22;10261;49.010;12.034;2022-07-15T04:40:14;17.60;99.90
20204;DHT22;10261;49.010;12.034;2022-07-15T04:42:21;17.60;99.90
20204;DHT22;10261;49.010;12.034;2022-07-15T04:43:23;17.60;99.90
20204;DHT22;10261;49.010;12.034;2022-07-15T04:45:30;17.50;99.90
20204;DHT22;10261;49.010;12.034;2022-07-15T04:46:33;17.50;99.90
20204;DHT22;10261;49.010;12.034;2022-07-15T04:50:00;17.60;99.90
20204;DHT22;10261;49.010;12.034;2022-07-15T04:52:24;17.60;99.90
20204;DHT22;10261;49.010;12.034;2022-07-15T04:53:26;17.60;99.90
20204;DHT22;10261;49.010;12.034;2022-07-15T04:55:32;17.60;99.90
20204;DHT22;10261;49.010;12.034;2022-07-15T04:56:35;17.60;99.90
20204;DHT22;10261;49.010;12.034;2022-07-15T04:58:41;17.60;99.90
20204;DHT22;10261;49.010;12.034;2022-07-15T05:00:47;17.60;99.90
20204;DHT22;10261;49.010;12.034;2022-07-15T05:02:54;17.60;99.90
20204;DHT22;10261;49.010;12.034;2022-07-15T05:04:59;17.60;99.90
20204;DHT22;10261;49.010;12.034;2022-07-15T05:06:01;17.70;99.90
20204;DHT22;10261;49.010;12.034;2022-07-15T05:07:05;17.70;99.90
20204;DHT22;10261;49.010;12.034;2022-07-15T05:08:07;17.60;99.90
20204;DHT22;10261;49.010;12.034;2022-07-15T05:09:10;17.70;99.90
20204;DHT22;10261;49.010;12.034;2022-07-15T05:10:12;17.70;99.90
20204;DHT22;10261;49.010;12.034;2022-07-15T05:11:15;17.70;99.90
20204;DHT22;10261;49.010;12.034;2022-07-15T05:13:21;17.70;99.90
20204;DHT22;10261;49.010;12.034;2022-07-15T05:14:23;17.70;99.90
20204;DHT22;10261;49.010;12.034;2022-07-15T05:16:30;17.70;99.90
20204;DHT22;10261;49.010;12.034;2022-07-15T05:17:34;17.70;99.90
20204;DHT22;10261;49.010;12.034;2022-07-15T05:18:36;17.70;99.90
20204;DHT22;10261;49.010;12.034;2022-07-15T05:19:39;17.70;99.90
20204;DHT22;10261;49.010;12.034;2022-07-15T05:20:41;17.70;99.90
20204;DHT22;10261;49.010;12.034;2022-07-15T05:21:45;17.80;99.90
20204;DHT22;10261;49.010;12.034;2022-07-15T05:22:48;17.70;99.90
20204;DHT22;10261;49.010;12.034;2022-07-15T05:23:50;17.70;99.90
20204;DHT22;10261;49.010;12.034;2022-07-15T05:25:13;17.70;99.90
20204;DHT22;10261;49.010;12.034;2022-07-15T05:26:16;17.70;99.90
20204;DHT22;10261;49.010;12.034;2022-07-15T05:27:20;17.80;99.90
20204;DHT22;10261;49.010;12.034;2022-07-15T05:28:23;17.70;99.90
20204;DHT22;10261;49.010;12.034;2022-07-15T05:29:25;17.80;99.90
20204;DHT22;10261;49.010;12.034;2022-07-15T05:30:28;17.80;99.90
20204;DHT22;10261;49.010;12.034;2022-07-15T05:31:31;17.80;99.90
20204;DHT22;10261;49.010;12.034;2022-07-15T05:32:35;17.80;99.90
20204;DHT22;10261;49.010;12.034;2022-07-15T05:33:37;17.80;99.90
20204;DHT22;10261;49.010;12.034;2022-07-15T05:34:41;17.80;99.90
20204;DHT22;10261;49.010;12.034;2022-07-15T05:35:43;17.80;99.90
20204;DHT22;10261;49.010;12.034;2022-07-15T05:37:56;17.90;99.90
20204;DHT22;10261;49.010;12.034;2022-07-15T05:38:59;17.90;99.90
20204;DHT22;10261;49.010;12.034;2022-07-15T05:40:01;17.80;99.90
20204;DHT22;10261;49.010;12.034;2022-07-15T05:41:05;17.90;99.90
20204;DHT22;10261;49.010;12.034;2022-07-15T05:42:08;17.90;99.90
20204;DHT22;10261;49.010;12.034;2022-07-15T05:43:10;17.90;99.90
20204;DHT22;10261;49.010;12.034;2022-07-15T05:44:13;17.90;99.90
20204;DHT22;10261;49.010;12.034;2022-07-15T05:45:15;18.00;99.90
20204;DHT22;10261;49.010;12.034;2022-07-15T05:46:18;18.00;99.90
20204;DHT22;10261;49.010;12.034;2022-07-15T05:47:23;18.00;99.90
20204;DHT22;10261;49.010;12.034;2022-07-15T05:48:25;17.90;99.90
20204;DHT22;10261;49.010;12.034;2022-07-15T05:49:28;17.90;99.90
20204;DHT22;10261;49.010;12.034;2022-07-15T05:50:30;17.90;99.90
20204;DHT22;10261;49.010;12.034;2022-07-15T05:51:33;18.00;99.90
20204;DHT22;10261;49.010;12.034;2022-07-15T05:52:35;17.90;99.90
20204;DHT22;10261;49.010;12.034;2022-07-15T05:53:38;18.00;99.90
20204;DHT22;10261;49.010;12.034;2022-07-15T05:54:40;18.00;99.90
20204;DHT22;10261;49.010;12.034;2022-07-15T05:55:44;18.00;99.90
20204;DHT22;10261;49.010;12.034;2022-07-15T05:56:47;18.00;99.90
20204;DHT22;10261;49.010;12.034;2022-07-15T05:57:50;18.00;99.90
20204;DHT22;10261;49.010;12.034;2022-07-15T05:58:53;18.00;99.90
20204;DHT22;10261;49.010;12.034;2022-07-15T05:59:55;17.90;99.90
20204;DHT22;10261;49.010;12.034;2022-07-15T06:00:58;17.90;99.90
20204;DHT22;10261;49.010;12.034;2022-07-15T06:02:01;18.00;99.90
20204;DHT22;10261;49.010;12.034;2022-07-15T06:03:05;18.00;99.90
20204;DHT22;10261;49.010;12.034;2022-07-15T06:04:15;18.00;99.90
20204;DHT22;10261;49.010;12.034;2022-07-15T06:05:17;18.00;99.90
20204;DHT22;10261;49.010;12.034;2022-07-15T06:06:21;18.00;99.90
20204;DHT22;10261;49.010;12.034;2022-07-15T06:07:23;18.10;99.90
20204;DHT22;10261;49.010;12.034;2022-07-15T06:08:26;18.00;99.90
20204;DHT22;10261;49.010;12.034;2022-07-15T06:09:28;18.10;99.90
20204;DHT22;10261;49.010;12.034;2022-07-15T06:10:31;18.10;99.90
20204;DHT22;10261;49.010;12.034;2022-07-15T06:11:33;19.00;99.90
20204;DHT22;10261;49.010;12.034;2022-07-15T06:12:37;18.10;99.90
20204;DHT22;10261;49.010;12.034;2022-07-15T06:13:39;18.10;99.90
20204;DHT22;10261;49.010;12.034;2022-07-15T06:14:42;18.10;99.90
20204;DHT22;10261;49.010;12.034;2022-07-15T06:15:46;18.00;99.90
20204;DHT22;10261;49.010;12.034;2022-07-15T06:16:48;18.10;99.90
20204;DHT22;10261;49.010;12.034;2022-07-15T06:17:51;18.10;99.90
20204;DHT22;10261;49.010;12.034;2022-07-15T06:18:57;18.10;99.90
20204;DHT22;10261;49.010;12.034;2022-07-15T06:19:59;18.20;99.90
20204;DHT22;10261;49.010;12.034;2022-07-15T06:21:07;18.20;99.90
20204;DHT22;10261;49.010;12.034;2022-07-15T06:22:10;18.20;99.90
20204;DHT22;10261;49.010;12.034;2022-07-15T06:23:12;18.20;99.90
20204;DHT22;10261;49.010;12.034;2022-07-15T06:24:15;18.20;99.90
20204;DHT22;10261;49.010;12.034;2022-07-15T06:25:18;18.20;99.90
20204;DHT22;10261;49.010;12.034;2022-07-15T06:26:21;18.20;99.90
20204;DHT22;10261;49.010;12.034;2022-07-15T06:27:23;18.30;99.90
20204;DHT22;10261;49.010;12.034;2022-07-15T06:28:26;18.20;99.90
20204;DHT22;10261;49.010;12.034;2022-07-15T06:29:28;18.30;99.90
20204;DHT22;10261;49.010;12.034;2022-07-15T06:30:31;18.30;99.90
20204;DHT22;10261;49.010;12.034;2022-07-15T06:31:34;18.30;99.90
20204;DHT22;10261;49.010;12.034;2022-07-15T06:32:36;18.30;99.90
20204;DHT22;10261;49.010;12.034;2022-07-15T06:33:39;18.30;99.90
20204;DHT22;10261;49.010;12.034;2022-07-15T06:34:42;18.30;99.90
20204;DHT22;10261;49.010;12.034;2022-07-15T06:35:45;18.40;99.90
20204;DHT22;10261;49.010;12.034;2022-07-15T06:36:47;18.40;99.90
20204;DHT22;10261;49.010;12.034;2022-07-15T06:37:51;18.30;99.90
20204;DHT22;10261;49.010;12.034;2022-07-15T06:38:55;18.30;99.90
20204;DHT22;10261;49.010;12.034;2022-07-15T06:39:57;18.40;99.90
20204;DHT22;10261;49.010;12.034;2022-07-15T06:41:00;18.40;99.90
20204;DHT22;10261;49.010;12.034;2022-07-15T06:42:02;18.40;99.90
20204;DHT22;10261;49.010;12.034;2022-07-15T06:43:05;18.50;99.90
20204;DHT22;10261;49.010;12.034;2022-07-15T06:44:08;18.50;99.90
20204;DHT22;10261;49.010;12.034;2022-07-15T06:45:11;18.50;99.90
20204;DHT22;10261;49.010;12.034;2022-07-15T06:46:14;18.50;99.90
20204;DHT22;10261;49.010;12.034;2022-07-15T06:47:16;18.50;99.90
20204;DHT22;10261;49.010;12.034;2022-07-15T06:48:20;18.50;99.90
20204;DHT22;10261;49.010;12.034;2022-07-15T06:49:22;18.50;99.90
20204;DHT22;10261;49.010;12.034;2022-07-15T06:50:26;18.50;99.90
20204;DHT22;10261;49.010;12.034;2022-07-15T06:52:32;18.60;99.90
20204;DHT22;10261;49.010;12.034;2022-07-15T06:53:34;18.60;99.90
20204;DHT22;10261;49.010;12.034;2022-07-15T06:54:38;18.60;99.90
20204;DHT22;10261;49.010;12.034;2022-07-15T06:55:41;18.60;99.90
20204;DHT22;10261;49.010;12.034;2022-07-15T06:56:44;18.60;99.90
20204;DHT22;10261;49.010;12.034;2022-07-15T06:57:47;18.60;99.90
20204;DHT22;10261;49.010;12.034;2022-07-15T06:58:49;18.60;99.90
20204;DHT22;10261;49.010;12.034;2022-07-15T06:59:52;18.60;99.90
20204;DHT22;10261;49.010;12.034;2022-07-15T07:00:54;18.60;99.90
20204;DHT22;10261;49.010;12.034;2022-07-15T07:01:58;18.70;99.90
20204;DHT22;10261;49.010;12.034;2022-07-15T07:03:01;18.60;99.90
20204;DHT22;10261;49.010;12.034;2022-07-15T07:04:03;18.70;99.90
20204;DHT22;10261;49.010;12.034;2022-07-15T07:05:07;18.70;99.90
20204;DHT22;10261;49.010;12.034;2022-07-15T07:06:11;18.70;99.90
20204;DHT22;10261;49.010;12.034;2022-07-15T07:07:14;18.70;99.90
20204;DHT22;10261;49.010;12.034;2022-07-15T07:08:16;18.70;99.90
20204;DHT22;10261;49.010;12.034;2022-07-15T07:09:19;18.70;99.90
20204;DHT22;10261;49.010;12.034;2022-07-15T07:10:22;18.70;99.90
20204;DHT22;10261;49.010;12.034;2022-07-15T07:11:28;18.70;99.90
20204;DHT22;10261;49.010;12.034;2022-07-15T07:12:31;18.70;99.90
20204;DHT22;10261;49.010;12.034;2022-07-15T07:13:33;18.80;99.90
20204;DHT22;10261;49.010;12.034;2022-07-15T07:14:36;18.80;99.90